W. O. Watson — WDE2805 — position and weather

sailwx.info

Track history (hours):
 
Tides and Currents Weather Stations Pressure Air Temp Water Temp Dewpoint Dewpoint Depression Visibility Wind Speed Wind Dir Waves Ship Positions

W. O. Watson

Owner: Martin Operating Partnership,LP, Vidor, TX. More information available from US FCC via Universal Licensing System and Coast Guard Vessel Documentation Center.

Last reported at 2014-Oct-30 16:31 UTC. Time now 2014-Oct-30 22:51 UTC.
Position N 29°30' W 094°52'.

Length 32 m; draft 2.8 m.

MMSI: 367329860.

Date/timePositionNaut miles runAvg speedWind from/ knotsBaromVisibWave heightAir tempDewpointWater temp
2014-Oct-30 16:31N 29°30' W 094°52'6 6.2
2014-Oct-30 15:33N 29°35' W 094°56'6 5.9
2014-Oct-30 14:33N 29°41' W 094°59'6 5.7
2014-Oct-30 13:33N 29°45' W 095°04'2 2.2
2014-Oct-30 12:33N 29°47' W 095°05'0 0.0
2014-Oct-30 11:33N 29°47' W 095°05'2 0.8
2014-Oct-30 08:33N 29°46' W 095°07'0 0.0
2014-Oct-30 05:13N 29°46' W 095°07'0 0.0
2014-Oct-29 20:29N 29°46' W 095°07'0 0.0
2014-Oct-29 13:26N 29°46' W 095°07'1 1.5
2014-Oct-29 12:33N 29°47' W 095°06'0 0.1
2014-Oct-29 09:30N 29°46' W 095°06'0 0.0
2014-Oct-29 07:18N 29°46' W 095°06'0 0.0
2014-Oct-29 06:29N 29°46' W 095°06'0 0.0
2014-Oct-28 23:31N 29°47' W 095°06'4 4.6
2014-Oct-28 22:33N 29°44' W 095°02'6 6.1
2014-Oct-28 21:33N 29°39' W 094°58'7 6.9
2014-Oct-28 20:33N 29°33' W 094°54'6 6.4
2014-Oct-28 19:33N 29°27' W 094°51'6 5.7
2014-Oct-28 18:33N 29°22' W 094°48'4 0.2
2014-Oct-27 19:06N 29°23' W 094°53'7 1.3
2014-Oct-27 14:13N 29°24' W 094°45'0 0.0
2014-Oct-27 13:26N 29°24' W 094°45'0 0.0
2014-Oct-27 12:32N 29°24' W 094°45'0 0.0
2014-Oct-27 09:12N 29°24' W 094°45'0 0.0
2014-Oct-27 06:15N 29°24' W 094°45'0 0.0
2014-Oct-26 19:16N 29°24' W 094°45'0 0.0
2014-Oct-26 14:22N 29°24' W 094°45'0 0.0
2014-Oct-26 13:31N 29°24' W 094°45'0 0.0
2014-Oct-26 06:33N 29°24' W 094°45'0 0.0
2014-Oct-26 05:32N 29°24' W 094°45'0 0.0
2014-Oct-26 04:30N 29°24' W 094°45'0 0.0
2014-Oct-26 03:21N 29°24' W 094°45'0 0.0
2014-Oct-26 01:09N 29°24' W 094°45'0 0.0
2014-Oct-25 23:33N 29°24' W 094°45'0 0.0
2014-Oct-25 17:19N 29°24' W 094°45'0 0.0
2014-Oct-25 16:24N 29°24' W 094°45'0 0.0
2014-Oct-25 15:33N 29°24' W 094°45'0 0.0
2014-Oct-25 14:33N 29°24' W 094°45'0 0.0
2014-Oct-25 13:33N 29°24' W 094°45'0 0.0
2014-Oct-25 12:33N 29°24' W 094°45'0 0.0
2014-Oct-25 11:33N 29°24' W 094°45'0 0.0
2014-Oct-25 10:33N 29°24' W 094°45'0 0.0
2014-Oct-25 09:33N 29°24' W 094°45'0 0.0
2014-Oct-25 08:05N 29°24' W 094°45'0 0.0
2014-Oct-25 07:32N 29°24' W 094°45'0 0.0
2014-Oct-25 06:29N 29°24' W 094°45'0 0.0
2014-Oct-25 04:23N 29°24' W 094°45'0 0.0
2014-Oct-25 03:31N 29°24' W 094°45'0 0.0
2014-Oct-24 15:32N 29°24' W 094°45'0 0.0
2014-Oct-24 14:33N 29°24' W 094°45'0 0.0
2014-Oct-24 13:33N 29°24' W 094°45'0 0.0
2014-Oct-24 12:31N 29°24' W 094°45'0 0.0
2014-Oct-24 11:33N 29°24' W 094°45'0 0.0
2014-Oct-24 10:33N 29°24' W 094°45'0 0.0
2014-Oct-24 09:33N 29°24' W 094°45'0 0.0
2014-Oct-24 08:33N 29°24' W 094°45'0 0.0
2014-Oct-24 07:31N 29°24' W 094°45'0 0.0
2014-Oct-24 06:18N 29°24' W 094°45'0 0.0
2014-Oct-24 05:31N 29°24' W 094°45'0 0.0
2014-Oct-24 04:19N 29°24' W 094°45'0 0.0
2014-Oct-24 02:22N 29°24' W 094°45'8 0.6
2014-Oct-23 12:32N 29°29' W 094°52'5 5.3
2014-Oct-23 11:34N 29°34' W 094°55'5 5.0
2014-Oct-23 10:33N 29°38' W 094°58'5 4.6
2014-Oct-23 09:33N 29°42' W 095°00'5 4.6
2014-Oct-23 08:33N 29°45' W 095°04'2 1.6
2014-Oct-23 07:30N 29°45' W 095°06'0 0.0
2014-Oct-23 06:33N 29°45' W 095°06'0 0.0
2014-Oct-23 05:34N 29°45' W 095°06'0 0.0
2014-Oct-23 04:33N 29°45' W 095°06'0 0.0
2014-Oct-23 03:11N 29°45' W 095°06'0 0.0
2014-Oct-23 02:32N 29°45' W 095°06'0 0.0
2014-Oct-23 01:32N 29°45' W 095°06'0 0.0
2014-Oct-23 00:32N 29°45' W 095°06'0 0.0
2014-Oct-22 23:22N 29°45' W 095°06'0 0.0
2014-Oct-22 22:26N 29°45' W 095°06'0 0.0
2014-Oct-22 21:23N 29°45' W 095°06'0 0.0
2014-Oct-22 20:32N 29°45' W 095°06'0 0.0
2014-Oct-22 19:30N 29°45' W 095°06'0 0.0
2014-Oct-22 18:15N 29°45' W 095°06'0 0.0
2014-Oct-22 17:29N 29°45' W 095°06'0 0.0
2014-Oct-22 16:30N 29°45' W 095°06'0 0.0
2014-Oct-22 15:33N 29°45' W 095°06'0 0.0
2014-Oct-22 14:33N 29°45' W 095°06'0 0.0
2014-Oct-22 13:33N 29°45' W 095°06'0 0.0
2014-Oct-22 12:33N 29°45' W 095°06'0 0.0
2014-Oct-22 11:33N 29°45' W 095°06'1 1.4
2014-Oct-22 10:33N 29°46' W 095°05'1 0.4
2014-Oct-22 09:04N 29°47' W 095°05'0 0.0
2014-Oct-22 08:33N 29°47' W 095°05'0 0.0
2014-Oct-22 07:27N 29°47' W 095°05'0 0.0
2014-Oct-22 06:33N 29°47' W 095°05'0 0.1
2014-Oct-22 05:33N 29°47' W 095°05'0 0.1
2014-Oct-22 04:33N 29°47' W 095°05'0 0.0
2014-Oct-22 03:33N 29°47' W 095°05'0 0.0
2014-Oct-22 02:33N 29°47' W 095°05'0 0.0
2014-Oct-22 01:33N 29°47' W 095°05'0 0.0
2014-Oct-22 00:29N 29°47' W 095°05'0 0.0
2014-Oct-21 23:31N 29°47' W 095°05'0 0.0
2014-Oct-21 22:30N 29°47' W 095°05'0 0.0
2014-Oct-21 21:33N 29°47' W 095°05'3 3.1
2014-Oct-21 20:33N 29°44' W 095°03'5 5.1
2014-Oct-21 19:33N 29°41' W 094°59'7 7.0
2014-Oct-21 18:33N 29°34' W 094°55'7 6.9
2014-Oct-21 17:33N 29°28' W 094°51'7 5.9
2014-Oct-21 16:22N 29°22' W 094°49'5 0.4
2014-Oct-21 02:32N 29°22' W 094°55'2 0.8
2014-Oct-21 00:22N 29°23' W 094°53'  
Track history (hours):
 
Tides and Currents Weather Stations Pressure Air Temp Water Temp Dewpoint Dewpoint Depression Visibility Wind Speed Wind Dir Waves Ship Positions

W. O. Watson

Owner: Martin Operating Partnership,LP, Vidor, TX. More information available from US FCC via Universal Licensing System and Coast Guard Vessel Documentation Center.

Last reported at 2014-Oct-30 16:31 UTC. Time now 2014-Oct-30 22:51 UTC.
Position N 29°30' W 094°52'.

Length 32 m; draft 2.8 m.

MMSI: 367329860.

Date/timePositionNaut miles runAvg speedWind from/ knotsBaromVisibWave heightAir tempDewpointWater temp
2014-Oct-30 16:31N 29°30' W 094°52'6 6.2
2014-Oct-30 15:33N 29°35' W 094°56'6 5.9
2014-Oct-30 14:33N 29°41' W 094°59'6 5.7
2014-Oct-30 13:33N 29°45' W 095°04'2 2.2
2014-Oct-30 12:33N 29°47' W 095°05'0 0.0
2014-Oct-30 11:33N 29°47' W 095°05'2 0.8
2014-Oct-30 08:33N 29°46' W 095°07'0 0.0
2014-Oct-30 05:13N 29°46' W 095°07'0 0.0
2014-Oct-29 20:29N 29°46' W 095°07'0 0.0
2014-Oct-29 13:26N 29°46' W 095°07'1 1.5
2014-Oct-29 12:33N 29°47' W 095°06'0 0.1
2014-Oct-29 09:30N 29°46' W 095°06'0 0.0
2014-Oct-29 07:18N 29°46' W 095°06'0 0.0
2014-Oct-29 06:29N 29°46' W 095°06'0 0.0
2014-Oct-28 23:31N 29°47' W 095°06'4 4.6
2014-Oct-28 22:33N 29°44' W 095°02'6 6.1
2014-Oct-28 21:33N 29°39' W 094°58'7 6.9
2014-Oct-28 20:33N 29°33' W 094°54'6 6.4
2014-Oct-28 19:33N 29°27' W 094°51'6 5.7
2014-Oct-28 18:33N 29°22' W 094°48'4 0.2
2014-Oct-27 19:06N 29°23' W 094°53'7 1.3
2014-Oct-27 14:13N 29°24' W 094°45'0 0.0
2014-Oct-27 13:26N 29°24' W 094°45'0 0.0
2014-Oct-27 12:32N 29°24' W 094°45'0 0.0
2014-Oct-27 09:12N 29°24' W 094°45'0 0.0
2014-Oct-27 06:15N 29°24' W 094°45'0 0.0
2014-Oct-26 19:16N 29°24' W 094°45'0 0.0
2014-Oct-26 14:22N 29°24' W 094°45'0 0.0
2014-Oct-26 13:31N 29°24' W 094°45'0 0.0
2014-Oct-26 06:33N 29°24' W 094°45'0 0.0
2014-Oct-26 05:32N 29°24' W 094°45'0 0.0
2014-Oct-26 04:30N 29°24' W 094°45'0 0.0
2014-Oct-26 03:21N 29°24' W 094°45'0 0.0
2014-Oct-26 01:09N 29°24' W 094°45'0 0.0
2014-Oct-25 23:33N 29°24' W 094°45'0 0.0
2014-Oct-25 17:19N 29°24' W 094°45'0 0.0
2014-Oct-25 16:24N 29°24' W 094°45'0 0.0
2014-Oct-25 15:33N 29°24' W 094°45'0 0.0
2014-Oct-25 14:33N 29°24' W 094°45'0 0.0
2014-Oct-25 13:33N 29°24' W 094°45'0 0.0
2014-Oct-25 12:33N 29°24' W 094°45'0 0.0
2014-Oct-25 11:33N 29°24' W 094°45'0 0.0
2014-Oct-25 10:33N 29°24' W 094°45'0 0.0
2014-Oct-25 09:33N 29°24' W 094°45'0 0.0
2014-Oct-25 08:05N 29°24' W 094°45'0 0.0
2014-Oct-25 07:32N 29°24' W 094°45'0 0.0
2014-Oct-25 06:29N 29°24' W 094°45'0 0.0
2014-Oct-25 04:23N 29°24' W 094°45'0 0.0
2014-Oct-25 03:31N 29°24' W 094°45'0 0.0
2014-Oct-24 15:32N 29°24' W 094°45'0 0.0
2014-Oct-24 14:33N 29°24' W 094°45'0 0.0
2014-Oct-24 13:33N 29°24' W 094°45'0 0.0
2014-Oct-24 12:31N 29°24' W 094°45'0 0.0
2014-Oct-24 11:33N 29°24' W 094°45'0 0.0
2014-Oct-24 10:33N 29°24' W 094°45'0 0.0
2014-Oct-24 09:33N 29°24' W 094°45'0 0.0
2014-Oct-24 08:33N 29°24' W 094°45'0 0.0
2014-Oct-24 07:31N 29°24' W 094°45'0 0.0
2014-Oct-24 06:18N 29°24' W 094°45'0 0.0
2014-Oct-24 05:31N 29°24' W 094°45'0 0.0
2014-Oct-24 04:19N 29°24' W 094°45'0 0.0
2014-Oct-24 02:22N 29°24' W 094°45'8 0.6
2014-Oct-23 12:32N 29°29' W 094°52'5 5.3
2014-Oct-23 11:34N 29°34' W 094°55'5 5.0
2014-Oct-23 10:33N 29°38' W 094°58'5 4.6
2014-Oct-23 09:33N 29°42' W 095°00'5 4.6
2014-Oct-23 08:33N 29°45' W 095°04'2 1.6
2014-Oct-23 07:30N 29°45' W 095°06'0 0.0
2014-Oct-23 06:33N 29°45' W 095°06'0 0.0
2014-Oct-23 05:34N 29°45' W 095°06'0 0.0
2014-Oct-23 04:33N 29°45' W 095°06'0 0.0
2014-Oct-23 03:11N 29°45' W 095°06'0 0.0
2014-Oct-23 02:32N 29°45' W 095°06'0 0.0
2014-Oct-23 01:32N 29°45' W 095°06'0 0.0
2014-Oct-23 00:32N 29°45' W 095°06'0 0.0
2014-Oct-22 23:22N 29°45' W 095°06'0 0.0
2014-Oct-22 22:26N 29°45' W 095°06'0 0.0
2014-Oct-22 21:23N 29°45' W 095°06'0 0.0
2014-Oct-22 20:32N 29°45' W 095°06'0 0.0
2014-Oct-22 19:30N 29°45' W 095°06'0 0.0
2014-Oct-22 18:15N 29°45' W 095°06'0 0.0
2014-Oct-22 17:29N 29°45' W 095°06'0 0.0
2014-Oct-22 16:30N 29°45' W 095°06'0 0.0
2014-Oct-22 15:33N 29°45' W 095°06'0 0.0
2014-Oct-22 14:33N 29°45' W 095°06'0 0.0
2014-Oct-22 13:33N 29°45' W 095°06'0 0.0
2014-Oct-22 12:33N 29°45' W 095°06'0 0.0
2014-Oct-22 11:33N 29°45' W 095°06'1 1.4
2014-Oct-22 10:33N 29°46' W 095°05'1 0.4
2014-Oct-22 09:04N 29°47' W 095°05'0 0.0
2014-Oct-22 08:33N 29°47' W 095°05'0 0.0
2014-Oct-22 07:27N 29°47' W 095°05'0 0.0
2014-Oct-22 06:33N 29°47' W 095°05'0 0.1
2014-Oct-22 05:33N 29°47' W 095°05'0 0.1
2014-Oct-22 04:33N 29°47' W 095°05'0 0.0
2014-Oct-22 03:33N 29°47' W 095°05'0 0.0
2014-Oct-22 02:33N 29°47' W 095°05'0 0.0
2014-Oct-22 01:33N 29°47' W 095°05'0 0.0
2014-Oct-22 00:29N 29°47' W 095°05'0 0.0
2014-Oct-21 23:31N 29°47' W 095°05'0 0.0
2014-Oct-21 22:30N 29°47' W 095°05'0 0.0
2014-Oct-21 21:33N 29°47' W 095°05'3 3.1
2014-Oct-21 20:33N 29°44' W 095°03'5 5.1
2014-Oct-21 19:33N 29°41' W 094°59'7 7.0
2014-Oct-21 18:33N 29°34' W 094°55'7 6.9
2014-Oct-21 17:33N 29°28' W 094°51'7 5.9
2014-Oct-21 16:22N 29°22' W 094°49'5 0.4
2014-Oct-21 02:32N 29°22' W 094°55'2 0.8
2014-Oct-21 00:22N 29°23' W 094°53'  

Dump ship's entire track history